This is the latest recevied weather packets stored in our database for station/object WC4PEM-1. If no packets are shown the sender has not sent any weather packets the latest 10 day(s).
| Time | Temp. | Humidity | Pressure | Rain* | Wind** | Luminosity | Snow |
|---|---|---|---|---|---|---|---|
| 1777563817 | 27.22° C | 64% | 1011.7 hPa | 0 mm | - | 592 W/m² | - |
| 1777563517 | 26.67° C | 67% | 1011.7 hPa | 0 mm | - | 824 W/m² | - |
| 1777563218 | 26.67° C | 68% | 1011.7 hPa | 0 mm | - | 605 W/m² | - |
| 1777563192 | 26.67° C | 69% | 1011.9 hPa | 0 mm | - | 570 W/m² | - |
| 1777562917 | 26.67° C | 69% | 1011.9 hPa | 0 mm | - | 570 W/m² | - |
| 1777562617 | 26.67° C | 69% | 1011.9 hPa | 0 mm | - | 657 W/m² | - |
| 1777562428 | 26.11° C | 72% | 1011.7 hPa | 0 mm | - | 840 W/m² | - |
| 1777562317 | 26.67° C | 70% | 1011.7 hPa | 0 mm | - | 712 W/m² | - |
| 1777562017 | 26.11° C | 72% | 1011.7 hPa | 0 mm | - | 840 W/m² | - |
| 1777561718 | 26.11° C | 73% | 1011.7 hPa | 0 mm | - | 782 W/m² | - |
| 1777561418 | 26.11° C | 74% | 1011.7 hPa | 0 mm | - | 652 W/m² | - |
| 1777561118 | 25.56° C | 75% | 1011.7 hPa | 0 mm | - | 768 W/m² | - |
| 1777560817 | 25.56° C | 76% | 1011.6 hPa | 0 mm | - | 707 W/m² | - |
| 1777560517 | 25.56° C | 76% | 1011.6 hPa | 0 mm | - | 700 W/m² | - |
| 1777560218 | 25.56° C | 75% | 1011.7 hPa | 0 mm | - | 828 W/m² | - |
| 1777559917 | 25° C | 78% | 1011.6 hPa | 0 mm | - | 666 W/m² | - |
| 1777559618 | 25° C | 77% | 1011.6 hPa | 0 mm | - | 555 W/m² | - |
| 1777559318 | 25° C | 78% | 1011.6 hPa | 0 mm | - | 626 W/m² | - |
| 1777559310 | 24.44° C | 81% | 1011.6 hPa | 0 mm | - | 691 W/m² | - |
| 1777559018 | 24.44° C | 81% | 1011.6 hPa | 0 mm | - | 691 W/m² | - |
| 1777558718 | 24.44° C | 82% | 1011.7 hPa | 0 mm | - | 288 W/m² | - |
| 1777558418 | 23.89° C | 83% | 1011.5 hPa | 0 mm | - | 278 W/m² | - |
| 1777558348 | 23.89° C | 84% | 1011.5 hPa | 0 mm | - | 445 W/m² | - |
| 1777558118 | 23.89° C | 84% | 1011.5 hPa | 0 mm | - | 445 W/m² | - |
| 1777557818 | 23.89° C | 83% | 1011.5 hPa | 0 mm | - | 279 W/m² | - |
* Rain latest hour (hover to see other rain measurements)
** Current wind speed in m/s (hover to see current wind gust speed)